sensor_id;sensor_type;location;lat;lon;timestamp;P1;durP1;ratioP1;P2;durP2;ratioP2
19388;SDS011;9830;41.876;23.474;2022-09-09T00:04:37;7.20;;;1.53;;
19388;SDS011;9830;41.876;23.474;2022-09-09T00:07:18;3.20;;;1.47;;
19388;SDS011;9830;41.876;23.474;2022-09-09T00:15:44;3.60;;;1.33;;
19388;SDS011;9830;41.876;23.474;2022-09-09T00:21:03;0.60;;;0.57;;
19388;SDS011;9830;41.876;23.474;2022-09-09T00:29:56;0.77;;;0.77;;
19388;SDS011;9830;41.876;23.474;2022-09-09T00:32:16;1.40;;;1.10;;
19388;SDS011;9830;41.876;23.474;2022-09-09T00:34:52;4.90;;;1.80;;
19388;SDS011;9830;41.876;23.474;2022-09-09T00:37:28;0.37;;;0.37;;
19388;SDS011;9830;41.876;23.474;2022-09-09T00:39:57;0.60;;;0.60;;
19388;SDS011;9830;41.876;23.474;2022-09-09T00:47:41;0.70;;;0.70;;
19388;SDS011;9830;41.876;23.474;2022-09-09T00:58:15;0.70;;;0.70;;
19388;SDS011;9830;41.876;23.474;2022-09-09T01:06:26;1.43;;;1.27;;
19388;SDS011;9830;41.876;23.474;2022-09-09T01:12:01;2.13;;;1.73;;
19388;SDS011;9830;41.876;23.474;2022-09-09T01:14:24;4.63;;;1.07;;
19388;SDS011;9830;41.876;23.474;2022-09-09T01:17:00;0.93;;;0.93;;
19388;SDS011;9830;41.876;23.474;2022-09-09T01:22:28;0.63;;;0.63;;
19388;SDS011;9830;41.876;23.474;2022-09-09T01:27:46;2.07;;;1.37;;
19388;SDS011;9830;41.876;23.474;2022-09-09T01:30:15;1.10;;;1.00;;
19388;SDS011;9830;41.876;23.474;2022-09-09T01:32:47;1.00;;;1.00;;
19388;SDS011;9830;41.876;23.474;2022-09-09T01:37:58;1.07;;;0.60;;
19388;SDS011;9830;41.876;23.474;2022-09-09T01:40:25;1.70;;;1.53;;
19388;SDS011;9830;41.876;23.474;2022-09-09T01:42:51;0.93;;;0.63;;
19388;SDS011;9830;41.876;23.474;2022-09-09T01:45:18;3.07;;;1.27;;
19388;SDS011;9830;41.876;23.474;2022-09-09T01:47:44;1.30;;;1.30;;
19388;SDS011;9830;41.876;23.474;2022-09-09T01:50:11;1.17;;;1.07;;
19388;SDS011;9830;41.876;23.474;2022-09-09T01:52:40;1.43;;;0.77;;
19388;SDS011;9830;41.876;23.474;2022-09-09T01:55:06;0.40;;;0.40;;
19388;SDS011;9830;41.876;23.474;2022-09-09T01:57:36;2.07;;;0.70;;
19388;SDS011;9830;41.876;23.474;2022-09-09T02:00:08;2.63;;;2.23;;
19388;SDS011;9830;41.876;23.474;2022-09-09T02:02:43;2.57;;;1.60;;
19388;SDS011;9830;41.876;23.474;2022-09-09T02:05:39;0.13;;;0.13;;
19388;SDS011;9830;41.876;23.474;2022-09-09T02:08:09;0.67;;;0.67;;
19388;SDS011;9830;41.876;23.474;2022-09-09T02:13:28;1.07;;;1.07;;
19388;SDS011;9830;41.876;23.474;2022-09-09T02:16:00;1.37;;;1.23;;
19388;SDS011;9830;41.876;23.474;2022-09-09T02:18:32;4.80;;;1.60;;
19388;SDS011;9830;41.876;23.474;2022-09-09T02:21:03;1.20;;;1.10;;
19388;SDS011;9830;41.876;23.474;2022-09-09T02:23:31;3.50;;;1.27;;
19388;SDS011;9830;41.876;23.474;2022-09-09T02:25:59;6.23;;;1.30;;
19388;SDS011;9830;41.876;23.474;2022-09-09T02:28:28;1.50;;;1.40;;
19388;SDS011;9830;41.876;23.474;2022-09-09T02:30:56;7.10;;;1.63;;
19388;SDS011;9830;41.876;23.474;2022-09-09T02:33:24;1.70;;;1.27;;
19388;SDS011;9830;41.876;23.474;2022-09-09T02:35:52;1.53;;;0.97;;
19388;SDS011;9830;41.876;23.474;2022-09-09T02:38:21;0.60;;;0.60;;
19388;SDS011;9830;41.876;23.474;2022-09-09T02:40:51;1.10;;;1.10;;
19388;SDS011;9830;41.876;23.474;2022-09-09T02:43:17;0.73;;;0.73;;
19388;SDS011;9830;41.876;23.474;2022-09-09T02:46:03;1.20;;;1.20;;
19388;SDS011;9830;41.876;23.474;2022-09-09T02:54:32;0.70;;;0.70;;
19388;SDS011;9830;41.876;23.474;2022-09-09T02:59:37;2.50;;;1.27;;
19388;SDS011;9830;41.876;23.474;2022-09-09T03:02:03;1.17;;;1.07;;
19388;SDS011;9830;41.876;23.474;2022-09-09T03:04:29;1.00;;;0.87;;
19388;SDS011;9830;41.876;23.474;2022-09-09T03:06:56;2.87;;;1.60;;
19388;SDS011;9830;41.876;23.474;2022-09-09T03:09:22;1.67;;;1.23;;
19388;SDS011;9830;41.876;23.474;2022-09-09T03:11:48;1.50;;;1.40;;
19388;SDS011;9830;41.876;23.474;2022-09-09T03:14:15;11.20;;;3.40;;
19388;SDS011;9830;41.876;23.474;2022-09-09T03:16:41;0.80;;;0.80;;
19388;SDS011;9830;41.876;23.474;2022-09-09T03:19:11;0.90;;;0.90;;
19388;SDS011;9830;41.876;23.474;2022-09-09T03:21:36;13.03;;;1.40;;
19388;SDS011;9830;41.876;23.474;2022-09-09T03:24:02;9.47;;;2.40;;
19388;SDS011;9830;41.876;23.474;2022-09-09T03:26:29;1.33;;;1.10;;
19388;SDS011;9830;41.876;23.474;2022-09-09T03:28:55;2.50;;;1.00;;
19388;SDS011;9830;41.876;23.474;2022-09-09T03:31:21;1.10;;;1.00;;
19388;SDS011;9830;41.876;23.474;2022-09-09T03:33:47;3.40;;;1.97;;
19388;SDS011;9830;41.876;23.474;2022-09-09T03:36:13;0.97;;;0.87;;
19388;SDS011;9830;41.876;23.474;2022-09-09T03:38:40;2.00;;;1.60;;
19388;SDS011;9830;41.876;23.474;2022-09-09T03:41:06;1.13;;;1.03;;
19388;SDS011;9830;41.876;23.474;2022-09-09T03:43:33;1.20;;;1.10;;
19388;SDS011;9830;41.876;23.474;2022-09-09T03:45:59;2.17;;;1.37;;
19388;SDS011;9830;41.876;23.474;2022-09-09T03:48:25;0.87;;;0.87;;
19388;SDS011;9830;41.876;23.474;2022-09-09T03:50:53;1.30;;;1.27;;
19388;SDS011;9830;41.876;23.474;2022-09-09T03:53:21;1.07;;;0.97;;
19388;SDS011;9830;41.876;23.474;2022-09-09T03:55:49;1.90;;;1.70;;
19388;SDS011;9830;41.876;23.474;2022-09-09T03:58:19;1.33;;;1.23;;
19388;SDS011;9830;41.876;23.474;2022-09-09T04:00:55;4.13;;;1.67;;
19388;SDS011;9830;41.876;23.474;2022-09-09T04:03:22;16.93;;;2.87;;
19388;SDS011;9830;41.876;23.474;2022-09-09T04:05:49;4.13;;;1.23;;
19388;SDS011;9830;41.876;23.474;2022-09-09T04:08:19;2.00;;;1.87;;
19388;SDS011;9830;41.876;23.474;2022-09-09T04:10:46;3.50;;;1.80;;
19388;SDS011;9830;41.876;23.474;2022-09-09T04:13:15;1.70;;;1.60;;
19388;SDS011;9830;41.876;23.474;2022-09-09T04:15:42;4.53;;;2.67;;
19388;SDS011;9830;41.876;23.474;2022-09-09T04:18:21;5.57;;;2.80;;
19388;SDS011;9830;41.876;23.474;2022-09-09T04:20:49;2.13;;;2.03;;
19388;SDS011;9830;41.876;23.474;2022-09-09T04:23:15;4.80;;;1.73;;
19388;SDS011;9830;41.876;23.474;2022-09-09T04:25:53;3.83;;;3.43;;
19388;SDS011;9830;41.876;23.474;2022-09-09T04:28:20;2.13;;;1.50;;
19388;SDS011;9830;41.876;23.474;2022-09-09T04:30:47;1.97;;;1.87;;
19388;SDS011;9830;41.876;23.474;2022-09-09T04:33:14;2.17;;;2.07;;
19388;SDS011;9830;41.876;23.474;2022-09-09T04:35:44;1.00;;;1.00;;
19388;SDS011;9830;41.876;23.474;2022-09-09T04:38:11;6.17;;;3.43;;
19388;SDS011;9830;41.876;23.474;2022-09-09T04:40:37;2.60;;;2.33;;
19388;SDS011;9830;41.876;23.474;2022-09-09T04:43:06;3.30;;;2.00;;
19388;SDS011;9830;41.876;23.474;2022-09-09T04:45:32;2.03;;;1.90;;
19388;SDS011;9830;41.876;23.474;2022-09-09T04:47:58;3.83;;;3.13;;
19388;SDS011;9830;41.876;23.474;2022-09-09T04:50:24;6.33;;;4.47;;
19388;SDS011;9830;41.876;23.474;2022-09-09T04:52:50;5.80;;;3.30;;
19388;SDS011;9830;41.876;23.474;2022-09-09T04:55:16;3.40;;;2.80;;
19388;SDS011;9830;41.876;23.474;2022-09-09T04:57:42;3.90;;;3.37;;
19388;SDS011;9830;41.876;23.474;2022-09-09T05:00:08;4.30;;;3.90;;
19388;SDS011;9830;41.876;23.474;2022-09-09T05:02:38;5.93;;;3.67;;
19388;SDS011;9830;41.876;23.474;2022-09-09T05:05:05;8.57;;;2.80;;
19388;SDS011;9830;41.876;23.474;2022-09-09T05:07:31;2.90;;;2.27;;
19388;SDS011;9830;41.876;23.474;2022-09-09T05:09:57;2.23;;;2.13;;
19388;SDS011;9830;41.876;23.474;2022-09-09T05:12:23;3.20;;;3.00;;
19388;SDS011;9830;41.876;23.474;2022-09-09T05:14:50;4.63;;;4.20;;
19388;SDS011;9830;41.876;23.474;2022-09-09T05:17:16;2.40;;;2.20;;
19388;SDS011;9830;41.876;23.474;2022-09-09T05:19:42;4.97;;;3.03;;
19388;SDS011;9830;41.876;23.474;2022-09-09T05:22:09;3.27;;;3.07;;
19388;SDS011;9830;41.876;23.474;2022-09-09T05:24:36;2.63;;;2.43;;
19388;SDS011;9830;41.876;23.474;2022-09-09T05:27:03;7.10;;;3.37;;
19388;SDS011;9830;41.876;23.474;2022-09-09T05:29:30;3.57;;;2.70;;
19388;SDS011;9830;41.876;23.474;2022-09-09T05:31:58;4.00;;;3.67;;
19388;SDS011;9830;41.876;23.474;2022-09-09T05:34:24;5.27;;;3.57;;
19388;SDS011;9830;41.876;23.474;2022-09-09T05:36:50;3.00;;;2.87;;
19388;SDS011;9830;41.876;23.474;2022-09-09T05:39:17;3.60;;;3.30;;
19388;SDS011;9830;41.876;23.474;2022-09-09T05:41:42;4.23;;;3.40;;
19388;SDS011;9830;41.876;23.474;2022-09-09T05:44:08;5.37;;;4.93;;
19388;SDS011;9830;41.876;23.474;2022-09-09T05:46:34;11.73;;;5.67;;
19388;SDS011;9830;41.876;23.474;2022-09-09T05:48:59;6.47;;;5.07;;
19388;SDS011;9830;41.876;23.474;2022-09-09T05:51:27;19.23;;;5.90;;
19388;SDS011;9830;41.876;23.474;2022-09-09T05:53:55;9.77;;;6.53;;
19388;SDS011;9830;41.876;23.474;2022-09-09T05:56:24;11.07;;;7.10;;
19388;SDS011;9830;41.876;23.474;2022-09-09T05:58:51;7.27;;;5.03;;
19388;SDS011;9830;41.876;23.474;2022-09-09T06:01:24;6.50;;;4.57;;
19388;SDS011;9830;41.876;23.474;2022-09-09T06:03:54;7.97;;;5.13;;
19388;SDS011;9830;41.876;23.474;2022-09-09T06:06:21;9.67;;;5.97;;
19388;SDS011;9830;41.876;23.474;2022-09-09T06:08:52;4.37;;;3.97;;
19388;SDS011;9830;41.876;23.474;2022-09-09T06:13:46;7.17;;;5.53;;
19388;SDS011;9830;41.876;23.474;2022-09-09T06:16:16;6.13;;;5.63;;
19388;SDS011;9830;41.876;23.474;2022-09-09T06:18:43;7.50;;;6.80;;
19388;SDS011;9830;41.876;23.474;2022-09-09T06:21:11;6.10;;;5.13;;
19388;SDS011;9830;41.876;23.474;2022-09-09T06:23:47;7.43;;;5.90;;
19388;SDS011;9830;41.876;23.474;2022-09-09T06:26:17;9.87;;;7.73;;
19388;SDS011;9830;41.876;23.474;2022-09-09T06:28:45;17.43;;;6.97;;
19388;SDS011;9830;41.876;23.474;2022-09-09T06:31:14;5.93;;;5.40;;
19388;SDS011;9830;41.876;23.474;2022-09-09T06:33:46;5.07;;;4.57;;
19388;SDS011;9830;41.876;23.474;2022-09-09T06:36:13;14.50;;;6.40;;
19388;SDS011;9830;41.876;23.474;2022-09-09T06:38:41;8.70;;;6.53;;
19388;SDS011;9830;41.876;23.474;2022-09-09T06:41:08;9.43;;;5.30;;
19388;SDS011;9830;41.876;23.474;2022-09-09T06:43:35;7.38;;;4.95;;
19388;SDS011;9830;41.876;23.474;2022-09-09T06:46:17;61.80;;;7.45;;
19388;SDS011;9830;41.876;23.474;2022-09-09T06:48:45;7.35;;;5.53;;
19388;SDS011;9830;41.876;23.474;2022-09-09T06:53:40;27.45;;;5.70;;
19388;SDS011;9830;41.876;23.474;2022-09-09T06:58:39;5.55;;;4.35;;
19388;SDS011;9830;41.876;23.474;2022-09-09T07:01:09;5.82;;;4.53;;
19388;SDS011;9830;41.876;23.474;2022-09-09T07:03:40;4.45;;;4.05;;
19388;SDS011;9830;41.876;23.474;2022-09-09T07:06:07;3.53;;;3.22;;
19388;SDS011;9830;41.876;23.474;2022-09-09T07:08:39;8.70;;;3.20;;
19388;SDS011;9830;41.876;23.474;2022-09-09T07:11:06;2.58;;;2.47;;
19388;SDS011;9830;41.876;23.474;2022-09-09T07:13:33;4.32;;;4.00;;
19388;SDS011;9830;41.876;23.474;2022-09-09T07:16:05;4.60;;;2.90;;
19388;SDS011;9830;41.876;23.474;2022-09-09T07:18:33;6.35;;;2.97;;
19388;SDS011;9830;41.876;23.474;2022-09-09T07:20:59;4.07;;;3.20;;
19388;SDS011;9830;41.876;23.474;2022-09-09T07:23:26;12.88;;;4.03;;
19388;SDS011;9830;41.876;23.474;2022-09-09T07:25:51;16.73;;;4.40;;
19388;SDS011;9830;41.876;23.474;2022-09-09T07:28:18;3.53;;;3.22;;
19388;SDS011;9830;41.876;23.474;2022-09-09T07:30:52;4.22;;;3.40;;
19388;SDS011;9830;41.876;23.474;2022-09-09T07:33:19;2.90;;;2.70;;
19388;SDS011;9830;41.876;23.474;2022-09-09T07:35:45;2.25;;;2.05;;
19388;SDS011;9830;41.876;23.474;2022-09-09T07:38:10;1.98;;;1.88;;
19388;SDS011;9830;41.876;23.474;2022-09-09T07:40:36;1.80;;;1.70;;
19388;SDS011;9830;41.876;23.474;2022-09-09T07:43:02;5.07;;;2.95;;
19388;SDS011;9830;41.876;23.474;2022-09-09T07:45:28;6.60;;;2.72;;
19388;SDS011;9830;41.876;23.474;2022-09-09T07:47:54;4.55;;;2.33;;
19388;SDS011;9830;41.876;23.474;2022-09-09T07:50:21;2.72;;;2.53;;
19388;SDS011;9830;41.876;23.474;2022-09-09T07:52:48;2.22;;;2.05;;
19388;SDS011;9830;41.876;23.474;2022-09-09T07:55:15;2.35;;;2.15;;
19388;SDS011;9830;41.876;23.474;2022-09-09T07:57:41;2.08;;;1.90;;
19388;SDS011;9830;41.876;23.474;2022-09-09T08:00:06;2.20;;;2.10;;
19388;SDS011;9830;41.876;23.474;2022-09-09T08:02:33;1.83;;;1.73;;
19388;SDS011;9830;41.876;23.474;2022-09-09T08:04:58;1.45;;;1.38;;
19388;SDS011;9830;41.876;23.474;2022-09-09T08:07:24;2.70;;;1.58;;
19388;SDS011;9830;41.876;23.474;2022-09-09T08:09:51;2.33;;;2.20;;
19388;SDS011;9830;41.876;23.474;2022-09-09T08:12:16;9.40;;;1.92;;
19388;SDS011;9830;41.876;23.474;2022-09-09T08:14:43;1.50;;;1.40;;
19388;SDS011;9830;41.876;23.474;2022-09-09T08:17:09;1.08;;;1.08;;
19388;SDS011;9830;41.876;23.474;2022-09-09T08:19:34;3.03;;;1.58;;
19388;SDS011;9830;41.876;23.474;2022-09-09T08:22:01;7.57;;;1.88;;
19388;SDS011;9830;41.876;23.474;2022-09-09T08:24:27;1.50;;;1.40;;
19388;SDS011;9830;41.876;23.474;2022-09-09T08:26:53;1.42;;;1.13;;
19388;SDS011;9830;41.876;23.474;2022-09-09T08:29:19;1.25;;;1.25;;
19388;SDS011;9830;41.876;23.474;2022-09-09T08:31:46;1.77;;;1.48;;
19388;SDS011;9830;41.876;23.474;2022-09-09T08:34:14;1.15;;;1.08;;
19388;SDS011;9830;41.876;23.474;2022-09-09T08:36:44;1.00;;;1.00;;
19388;SDS011;9830;41.876;23.474;2022-09-09T08:39:11;1.65;;;1.55;;
19388;SDS011;9830;41.876;23.474;2022-09-09T08:58:04;1.70;;;1.67;;
19388;SDS011;9830;41.876;23.474;2022-09-09T09:00:44;1.42;;;1.13;;
19388;SDS011;9830;41.876;23.474;2022-09-09T09:11:57;1.60;;;1.50;;
19388;SDS011;9830;41.876;23.474;2022-09-09T09:14:26;1.30;;;1.25;;
19388;SDS011;9830;41.876;23.474;2022-09-09T09:16:59;1.95;;;1.65;;
19388;SDS011;9830;41.876;23.474;2022-09-09T09:19:34;1.42;;;1.40;;
19388;SDS011;9830;41.876;23.474;2022-09-09T09:24:54;6.15;;;1.60;;
19388;SDS011;9830;41.876;23.474;2022-09-09T09:30:15;2.13;;;2.03;;
19388;SDS011;9830;41.876;23.474;2022-09-09T09:32:46;9.20;;;2.25;;
19388;SDS011;9830;41.876;23.474;2022-09-09T09:35:23;1.67;;;1.58;;
19388;SDS011;9830;41.876;23.474;2022-09-09T09:37:49;0.95;;;0.95;;
19388;SDS011;9830;41.876;23.474;2022-09-09T09:40:20;1.80;;;1.70;;
19388;SDS011;9830;41.876;23.474;2022-09-09T09:42:54;2.10;;;1.58;;
19388;SDS011;9830;41.876;23.474;2022-09-09T09:45:32;1.20;;;1.20;;
19388;SDS011;9830;41.876;23.474;2022-09-09T09:50:30;10.15;;;1.88;;
19388;SDS011;9830;41.876;23.474;2022-09-09T09:52:58;3.83;;;1.27;;
19388;SDS011;9830;41.876;23.474;2022-09-09T09:55:26;1.08;;;1.08;;
19388;SDS011;9830;41.876;23.474;2022-09-09T09:58:05;1.33;;;1.23;;
19388;SDS011;9830;41.876;23.474;2022-09-09T10:00:47;1.83;;;1.73;;
19388;SDS011;9830;41.876;23.474;2022-09-09T10:03:26;3.22;;;1.98;;
19388;SDS011;9830;41.876;23.474;2022-09-09T10:05:53;1.52;;;1.45;;
19388;SDS011;9830;41.876;23.474;2022-09-09T10:08:21;1.08;;;1.08;;
19388;SDS011;9830;41.876;23.474;2022-09-09T10:11:35;1.05;;;1.05;;
19388;SDS011;9830;41.876;23.474;2022-09-09T10:13:46;0.93;;;0.93;;
19388;SDS011;9830;41.876;23.474;2022-09-09T10:19:05;1.15;;;1.15;;
19388;SDS011;9830;41.876;23.474;2022-09-09T10:30:49;1.42;;;1.00;;
19388;SDS011;9830;41.876;23.474;2022-09-09T10:36:27;5.22;;;2.42;;
19388;SDS011;9830;41.876;23.474;2022-09-09T10:39:04;2.80;;;2.00;;
19388;SDS011;9830;41.876;23.474;2022-09-09T10:41:45;3.55;;;3.25;;
19388;SDS011;9830;41.876;23.474;2022-09-09T10:55:56;2.55;;;1.88;;
19388;SDS011;9830;41.876;23.474;2022-09-09T10:58:37;1.88;;;1.75;;
19388;SDS011;9830;41.876;23.474;2022-09-09T11:01:10;4.22;;;2.97;;
19388;SDS011;9830;41.876;23.474;2022-09-09T11:04:01;12.70;;;2.50;;
19388;SDS011;9830;41.876;23.474;2022-09-09T11:06:57;22.05;;;2.20;;
19388;SDS011;9830;41.876;23.474;2022-09-09T11:09:30;1.52;;;1.42;;
19388;SDS011;9830;41.876;23.474;2022-09-09T11:12:02;20.35;;;2.95;;
19388;SDS011;9830;41.876;23.474;2022-09-09T11:14:36;2.83;;;2.42;;
19388;SDS011;9830;41.876;23.474;2022-09-09T11:17:09;1.27;;;1.05;;
19388;SDS011;9830;41.876;23.474;2022-09-09T11:24:59;2.25;;;1.23;;
19388;SDS011;9830;41.876;23.474;2022-09-09T11:38:53;5.95;;;2.60;;
19388;SDS011;9830;41.876;23.474;2022-09-09T11:41:34;6.55;;;1.30;;
19388;SDS011;9830;41.876;23.474;2022-09-09T11:44:09;0.85;;;0.85;;
19388;SDS011;9830;41.876;23.474;2022-09-09T11:46:43;2.20;;;2.10;;
19388;SDS011;9830;41.876;23.474;2022-09-09T11:49:28;2.50;;;2.33;;
19388;SDS011;9830;41.876;23.474;2022-09-09T11:52:12;1.42;;;1.33;;
19388;SDS011;9830;41.876;23.474;2022-09-09T11:54:46;1.92;;;1.10;;
19388;SDS011;9830;41.876;23.474;2022-09-09T11:57:22;8.95;;;4.53;;
19388;SDS011;9830;41.876;23.474;2022-09-09T12:00:00;0.93;;;0.93;;
19388;SDS011;9830;41.876;23.474;2022-09-09T12:02:27;3.75;;;2.50;;
19388;SDS011;9830;41.876;23.474;2022-09-09T12:05:04;3.92;;;2.30;;
19388;SDS011;9830;41.876;23.474;2022-09-09T12:07:52;0.93;;;0.93;;
19388;SDS011;9830;41.876;23.474;2022-09-09T12:12:52;1.30;;;1.25;;
19388;SDS011;9830;41.876;23.474;2022-09-09T12:15:22;0.93;;;0.93;;
19388;SDS011;9830;41.876;23.474;2022-09-09T12:17:54;1.42;;;1.33;;
19388;SDS011;9830;41.876;23.474;2022-09-09T12:28:25;1.60;;;1.50;;
19388;SDS011;9830;41.876;23.474;2022-09-09T12:33:47;1.55;;;1.45;;
19388;SDS011;9830;41.876;23.474;2022-09-09T12:36:16;3.03;;;2.70;;
19388;SDS011;9830;41.876;23.474;2022-09-09T12:38:46;2.03;;;1.90;;
19388;SDS011;9830;41.876;23.474;2022-09-09T12:41:26;1.45;;;0.88;;
19388;SDS011;9830;41.876;23.474;2022-09-09T12:44:03;2.53;;;2.13;;
19388;SDS011;9830;41.876;23.474;2022-09-09T12:46:43;2.05;;;1.20;;
19388;SDS011;9830;41.876;23.474;2022-09-09T12:52:22;1.60;;;1.50;;
19388;SDS011;9830;41.876;23.474;2022-09-09T12:54:55;3.03;;;2.05;;
19388;SDS011;9830;41.876;23.474;2022-09-09T12:57:22;24.27;;;1.58;;
19388;SDS011;9830;41.876;23.474;2022-09-09T12:59:50;2.35;;;1.25;;
19388;SDS011;9830;41.876;23.474;2022-09-09T13:04:50;1.50;;;1.40;;
19388;SDS011;9830;41.876;23.474;2022-09-09T13:07:20;16.80;;;5.78;;
19388;SDS011;9830;41.876;23.474;2022-09-09T13:09:46;16.33;;;6.55;;
19388;SDS011;9830;41.876;23.474;2022-09-09T13:12:18;22.05;;;3.72;;
19388;SDS011;9830;41.876;23.474;2022-09-09T13:14:55;0.93;;;0.93;;
19388;SDS011;9830;41.876;23.474;2022-09-09T13:17:25;2.80;;;2.42;;
19388;SDS011;9830;41.876;23.474;2022-09-09T13:19:56;1.35;;;1.30;;
19388;SDS011;9830;41.876;23.474;2022-09-09T13:22:33;1.00;;;1.00;;
19388;SDS011;9830;41.876;23.474;2022-09-09T13:25:05;1.42;;;1.40;;
19388;SDS011;9830;41.876;23.474;2022-09-09T13:27:50;10.00;;;1.48;;
19388;SDS011;9830;41.876;23.474;2022-09-09T13:30:22;2.85;;;2.25;;
19388;SDS011;9830;41.876;23.474;2022-09-09T13:35:47;16.60;;;2.33;;
19388;SDS011;9830;41.876;23.474;2022-09-09T13:38:14;0.95;;;0.95;;
19388;SDS011;9830;41.876;23.474;2022-09-09T13:40:51;1.67;;;1.58;;
19388;SDS011;9830;41.876;23.474;2022-09-09T13:43:30;0.98;;;0.98;;
19388;SDS011;9830;41.876;23.474;2022-09-09T13:46:00;19.63;;;2.42;;
19388;SDS011;9830;41.876;23.474;2022-09-09T13:48:29;0.85;;;0.82;;
19388;SDS011;9830;41.876;23.474;2022-09-09T13:53:23;5.28;;;1.35;;
19388;SDS011;9830;41.876;23.474;2022-09-09T13:55:49;3.28;;;1.92;;
19388;SDS011;9830;41.876;23.474;2022-09-09T13:58:16;10.63;;;1.23;;
19388;SDS011;9830;41.876;23.474;2022-09-09T14:00:44;0.85;;;0.85;;
19388;SDS011;9830;41.876;23.474;2022-09-09T14:03:10;1.40;;;1.30;;
19388;SDS011;9830;41.876;23.474;2022-09-09T14:05:36;1.17;;;1.13;;
19388;SDS011;9830;41.876;23.474;2022-09-09T14:08:05;0.82;;;0.82;;
19388;SDS011;9830;41.876;23.474;2022-09-09T14:10:32;2.95;;;0.55;;
19388;SDS011;9830;41.876;23.474;2022-09-09T14:13:02;15.68;;;2.25;;
19388;SDS011;9830;41.876;23.474;2022-09-09T14:15:28;1.88;;;1.58;;
19388;SDS011;9830;41.876;23.474;2022-09-09T14:17:54;1.25;;;1.13;;
19388;SDS011;9830;41.876;23.474;2022-09-09T14:20:20;3.92;;;1.98;;
19388;SDS011;9830;41.876;23.474;2022-09-09T14:22:46;1.65;;;1.52;;
19388;SDS011;9830;41.876;23.474;2022-09-09T14:25:12;1.50;;;1.40;;
19388;SDS011;9830;41.876;23.474;2022-09-09T14:27:40;1.02;;;1.02;;
19388;SDS011;9830;41.876;23.474;2022-09-09T14:30:07;1.50;;;1.40;;
19388;SDS011;9830;41.876;23.474;2022-09-09T14:32:34;7.53;;;2.38;;
19388;SDS011;9830;41.876;23.474;2022-09-09T14:35:00;2.05;;;1.85;;
19388;SDS011;9830;41.876;23.474;2022-09-09T14:37:26;1.15;;;1.15;;
19388;SDS011;9830;41.876;23.474;2022-09-09T14:39:52;2.28;;;1.27;;
19388;SDS011;9830;41.876;23.474;2022-09-09T14:42:18;1.08;;;1.08;;
19388;SDS011;9830;41.876;23.474;2022-09-09T14:44:44;1.27;;;1.23;;
19388;SDS011;9830;41.876;23.474;2022-09-09T14:47:10;1.20;;;1.20;;
19388;SDS011;9830;41.876;23.474;2022-09-09T14:49:36;1.27;;;1.17;;
19388;SDS011;9830;41.876;23.474;2022-09-09T14:52:03;2.17;;;1.50;;
19388;SDS011;9830;41.876;23.474;2022-09-09T14:54:29;1.50;;;1.40;;
19388;SDS011;9830;41.876;23.474;2022-09-09T14:56:56;3.00;;;1.80;;
19388;SDS011;9830;41.876;23.474;2022-09-09T14:59:22;1.48;;;1.38;;
19388;SDS011;9830;41.876;23.474;2022-09-09T15:01:48;1.88;;;1.77;;
19388;SDS011;9830;41.876;23.474;2022-09-09T15:04:14;2.17;;;2.05;;
19388;SDS011;9830;41.876;23.474;2022-09-09T15:06:40;1.75;;;1.25;;
19388;SDS011;9830;41.876;23.474;2022-09-09T15:09:07;3.05;;;1.65;;
19388;SDS011;9830;41.876;23.474;2022-09-09T15:11:34;5.85;;;2.15;;
19388;SDS011;9830;41.876;23.474;2022-09-09T15:14:04;1.73;;;1.50;;
19388;SDS011;9830;41.876;23.474;2022-09-09T15:16:31;2.63;;;1.58;;
19388;SDS011;9830;41.876;23.474;2022-09-09T15:18:58;2.08;;;1.80;;
19388;SDS011;9830;41.876;23.474;2022-09-09T15:21:29;1.08;;;1.08;;
19388;SDS011;9830;41.876;23.474;2022-09-09T15:24:00;2.30;;;1.25;;
19388;SDS011;9830;41.876;23.474;2022-09-09T15:26:26;1.88;;;1.52;;
19388;SDS011;9830;41.876;23.474;2022-09-09T15:28:52;0.95;;;0.95;;
19388;SDS011;9830;41.876;23.474;2022-09-09T15:31:20;1.20;;;0.82;;
19388;SDS011;9830;41.876;23.474;2022-09-09T15:36:17;1.98;;;1.45;;
19388;SDS011;9830;41.876;23.474;2022-09-09T15:38:45;1.55;;;1.40;;
19388;SDS011;9830;41.876;23.474;2022-09-09T15:41:11;0.80;;;0.80;;
19388;SDS011;9830;41.876;23.474;2022-09-09T15:43:38;0.88;;;0.88;;
19388;SDS011;9830;41.876;23.474;2022-09-09T15:48:43;1.10;;;1.00;;
19388;SDS011;9830;41.876;23.474;2022-09-09T15:51:09;2.30;;;1.70;;
19388;SDS011;9830;41.876;23.474;2022-09-09T15:53:35;0.85;;;0.85;;
19388;SDS011;9830;41.876;23.474;2022-09-09T15:56:07;2.38;;;1.60;;
19388;SDS011;9830;41.876;23.474;2022-09-09T15:58:33;1.35;;;1.25;;
19388;SDS011;9830;41.876;23.474;2022-09-09T16:01:07;4.93;;;1.13;;
19388;SDS011;9830;41.876;23.474;2022-09-09T16:03:34;1.58;;;1.17;;
19388;SDS011;9830;41.876;23.474;2022-09-09T16:06:01;1.00;;;1.00;;
19388;SDS011;9830;41.876;23.474;2022-09-09T16:08:33;0.52;;;0.52;;
19388;SDS011;9830;41.876;23.474;2022-09-09T16:11:09;1.75;;;1.30;;
19388;SDS011;9830;41.876;23.474;2022-09-09T16:13:41;1.58;;;0.93;;
19388;SDS011;9830;41.876;23.474;2022-09-09T16:16:09;6.15;;;2.10;;
19388;SDS011;9830;41.876;23.474;2022-09-09T16:18:36;1.85;;;1.33;;
19388;SDS011;9830;41.876;23.474;2022-09-09T16:21:04;1.27;;;1.23;;
19388;SDS011;9830;41.876;23.474;2022-09-09T16:23:31;0.85;;;0.85;;
19388;SDS011;9830;41.876;23.474;2022-09-09T16:25:57;1.08;;;0.98;;
19388;SDS011;9830;41.876;23.474;2022-09-09T16:28:23;18.67;;;2.38;;
19388;SDS011;9830;41.876;23.474;2022-09-09T16:30:49;0.98;;;0.98;;
19388;SDS011;9830;41.876;23.474;2022-09-09T16:33:15;2.75;;;1.10;;
19388;SDS011;9830;41.876;23.474;2022-09-09T16:35:41;1.30;;;1.20;;
19388;SDS011;9830;41.876;23.474;2022-09-09T16:38:07;0.68;;;0.68;;
19388;SDS011;9830;41.876;23.474;2022-09-09T16:40:34;2.40;;;1.30;;
19388;SDS011;9830;41.876;23.474;2022-09-09T16:43:00;1.20;;;1.20;;
19388;SDS011;9830;41.876;23.474;2022-09-09T16:45:26;1.67;;;1.13;;
19388;SDS011;9830;41.876;23.474;2022-09-09T16:47:53;1.38;;;1.27;;
19388;SDS011;9830;41.876;23.474;2022-09-09T16:50:19;0.97;;;0.97;;
19388;SDS011;9830;41.876;23.474;2022-09-09T16:52:45;1.40;;;1.10;;
19388;SDS011;9830;41.876;23.474;2022-09-09T16:55:10;1.27;;;1.27;;
19388;SDS011;9830;41.876;23.474;2022-09-09T16:57:36;0.63;;;0.63;;
19388;SDS011;9830;41.876;23.474;2022-09-09T17:00:03;3.70;;;1.67;;
19388;SDS011;9830;41.876;23.474;2022-09-09T17:02:31;12.90;;;2.87;;
19388;SDS011;9830;41.876;23.474;2022-09-09T17:04:57;4.77;;;1.77;;
19388;SDS011;9830;41.876;23.474;2022-09-09T17:07:24;1.23;;;1.10;;
19388;SDS011;9830;41.876;23.474;2022-09-09T17:09:50;1.17;;;1.13;;
19388;SDS011;9830;41.876;23.474;2022-09-09T17:12:16;1.10;;;1.10;;
19388;SDS011;9830;41.876;23.474;2022-09-09T17:14:42;1.37;;;1.27;;
19388;SDS011;9830;41.876;23.474;2022-09-09T17:17:08;2.07;;;1.43;;
19388;SDS011;9830;41.876;23.474;2022-09-09T17:19:35;1.27;;;1.17;;
19388;SDS011;9830;41.876;23.474;2022-09-09T17:22:00;3.43;;;2.07;;
19388;SDS011;9830;41.876;23.474;2022-09-09T17:24:27;1.90;;;1.23;;
19388;SDS011;9830;41.876;23.474;2022-09-09T17:26:53;0.80;;;0.80;;
19388;SDS011;9830;41.876;23.474;2022-09-09T17:29:20;0.63;;;0.63;;
19388;SDS011;9830;41.876;23.474;2022-09-09T17:31:46;1.87;;;1.23;;
19388;SDS011;9830;41.876;23.474;2022-09-09T17:34:12;2.33;;;1.50;;
19388;SDS011;9830;41.876;23.474;2022-09-09T17:36:38;5.17;;;1.83;;
19388;SDS011;9830;41.876;23.474;2022-09-09T17:39:04;0.87;;;0.80;;
19388;SDS011;9830;41.876;23.474;2022-09-09T17:41:35;1.27;;;1.27;;
19388;SDS011;9830;41.876;23.474;2022-09-09T17:44:02;4.50;;;2.03;;
19388;SDS011;9830;41.876;23.474;2022-09-09T17:46:33;1.20;;;1.10;;
19388;SDS011;9830;41.876;23.474;2022-09-09T17:49:06;0.87;;;0.87;;
19388;SDS011;9830;41.876;23.474;2022-09-09T17:51:34;0.63;;;0.63;;